Time;durP1;ratioP1;P1;durP2;ratioP2;P2;SDS_P1;SDS_P2;PMS_P1;PMS_P2;Temp;Humidity;BMP_temperature;BMP_pressure;BME280_temperature;BME280_humidity;BME280_pressure;Samples;Min_cycle;Max_cycle;Signal;HPM_P1;HPM_P2
2023/09/04 00:02:12;;;;;;;8.73;2.90;;;21.40;85.00;;;21.87;55.15;95103.44;5039120;28;20491;-63
2023/09/04 00:04:40;;;;;;;2.60;2.50;;;21.40;84.40;;;21.70;55.80;95128.97;5036588;28;20851;-64
2023/09/04 00:07:09;;;;;;;2.90;1.97;;;21.20;86.20;;;21.56;56.99;95138.81;5038950;28;20448;-64
2023/09/04 00:09:37;;;;;;;8.20;2.83;;;21.10;88.50;;;21.47;57.98;95138.97;5036641;28;20472;-63
2023/09/04 00:12:06;;;;;;;4.80;2.33;;;21.00;90.80;;;21.38;57.47;95132.16;5038402;28;20470;-57
2023/09/04 00:14:33;;;;;;;2.80;2.37;;;20.90;90.20;;;21.22;57.90;95124.47;5036566;28;20545;-63
2023/09/04 00:17:00;;;;;;;3.97;2.63;;;20.70;90.40;;;20.98;57.93;95115.94;5037875;28;20453;-62
2023/09/04 00:19:27;;;;;;;4.40;2.30;;;20.50;90.80;;;20.71;58.25;95115.81;5037015;28;20871;-57
2023/09/04 00:21:54;;;;;;;2.40;2.30;;;20.30;91.20;;;20.47;59.05;95098.34;5035417;28;20488;-62
2023/09/04 00:24:23;;;;;;;2.13;1.93;;;20.10;91.80;;;20.33;59.52;95100.09;5038277;28;20476;-62
2023/09/04 00:26:51;;;;;;;4.60;2.13;;;19.90;92.30;;;20.19;59.52;95091.16;5037819;28;20995;-63
2023/09/04 00:29:18;;;;;;;4.30;2.40;;;19.80;92.70;;;20.09;60.19;95084.50;5037400;28;20472;-56
2023/09/04 00:31:45;;;;;;;5.00;2.80;;;19.60;93.30;;;20.03;61.37;95092.28;5037433;28;20962;-58
2023/09/04 00:34:12;;;;;;;6.13;2.70;;;19.60;94.60;;;20.02;62.25;95090.63;5038016;28;20567;-58
2023/09/04 00:36:40;;;;;;;4.83;2.67;;;19.50;95.30;;;20.01;61.90;95083.63;5036860;28;20486;-63
2023/09/04 00:39:07;;;;;;;3.10;2.27;;;19.50;95.80;;;20.03;62.11;95081.59;5037497;28;20484;-63
2023/09/04 00:41:35;;;;;;;2.80;2.57;;;19.50;95.50;;;19.98;61.45;95081.34;5036168;28;20493;-64
2023/09/04 00:44:03;;;;;;;3.50;2.17;;;19.50;95.40;;;19.93;61.89;95078.44;5037754;28;20926;-57
2023/09/04 00:46:30;;;;;;;2.40;2.30;;;19.50;95.40;;;19.90;62.11;95070.81;5035254;28;20869;-58
2023/09/04 00:48:57;;;;;;;2.60;2.40;;;19.40;95.80;;;19.88;62.20;95065.66;5038016;28;20590;-59
2023/09/04 00:51:24;;;;;;;3.10;2.70;;;19.40;96.60;;;19.89;62.94;95069.13;5035882;28;20463;-57
2023/09/04 00:53:52;;;;;;;3.23;2.40;;;19.40;96.70;;;19.89;62.87;95063.81;5038135;28;20479;-57
2023/09/04 00:56:19;;;;;;;6.70;2.57;;;19.40;97.00;;;19.92;63.56;95074.09;5035562;28;20448;-59
2023/09/04 00:58:48;;;;;;;10.63;2.80;;;19.40;97.20;;;19.98;64.36;95064.50;5038184;28;20475;-63
2023/09/04 01:01:16;;;;;;;1.87;1.77;;;19.40;97.90;;;20.00;63.70;95052.63;5035124;28;20511;-63
2023/09/04 01:03:43;;;;;;;3.00;2.20;;;19.50;97.70;;;20.00;63.31;95044.59;5038688;28;20479;-62
2023/09/04 01:06:10;;;;;;;3.63;2.47;;;19.50;97.30;;;20.05;63.94;95049.38;5034676;28;20453;-57
2023/09/04 01:08:37;;;;;;;6.80;2.70;;;19.50;97.80;;;20.08;64.47;95048.13;5038683;28;20848;-58
2023/09/04 01:11:10;;;;;;;2.70;2.50;;;19.60;98.40;;;20.12;64.97;95042.19;5030878;28;20957;-57
2023/09/04 01:13:41;;;;;;;4.73;3.37;;;19.60;98.60;;;20.14;65.24;95034.84;5035129;28;20566;-63
2023/09/04 01:16:10;;;;;;;3.30;3.00;;;19.60;98.80;;;20.15;65.29;95036.47;5037953;28;20444;-64
2023/09/04 01:18:37;;;;;;;7.33;2.80;;;19.60;99.10;;;20.16;64.82;95029.31;5035172;28;20536;-57
2023/09/04 01:21:06;;;;;;;3.43;3.23;;;19.70;99.10;;;20.17;64.80;95036.28;5038795;28;20494;-64
2023/09/04 01:23:34;;;;;;;2.50;2.30;;;19.70;98.90;;;20.18;64.85;95029.94;5037866;28;20468;-62
2023/09/04 01:26:11;;;;;;;6.37;2.70;;;19.70;99.20;;;20.18;64.70;95021.91;5035170;28;20536;-63
2023/09/04 01:28:43;;;;;;;3.83;3.20;;;19.70;98.80;;;20.17;65.24;95028.25;5036515;28;20572;-62
2023/09/04 01:31:19;;;;;;;3.40;2.80;;;19.70;99.20;;;20.15;65.23;95019.63;5036249;28;20453;-63
2023/09/04 01:33:51;;;;;;;3.00;2.63;;;19.60;99.10;;;20.13;64.41;95011.00;5034472;28;20929;-56
2023/09/04 01:36:19;;;;;;;8.83;2.83;;;19.60;98.70;;;20.11;64.84;95007.69;5030000;28;20574;-58
2023/09/04 01:38:46;;;;;;;3.80;2.70;;;19.60;98.90;;;20.10;64.86;95022.06;5030174;28;20522;-63
2023/09/04 01:41:14;;;;;;;5.57;3.30;;;19.60;99.40;;;20.08;65.31;95016.09;5037412;28;20499;-57
2023/09/04 01:43:41;;;;;;;3.07;2.87;;;19.60;99.10;;;20.04;65.09;95016.47;5034351;28;20848;-57
2023/09/04 01:46:08;;;;;;;2.47;2.27;;;19.60;99.10;;;20.04;64.59;95024.47;5037260;28;20451;-62
2023/09/04 01:48:36;;;;;;;3.50;3.20;;;19.60;98.80;;;20.02;64.68;95018.53;5034715;28;20473;-59
2023/09/04 01:51:03;;;;;;;4.50;2.20;;;19.50;99.00;;;20.00;64.64;95015.25;5036800;28;20487;-58
2023/09/04 01:53:32;;;;;;;7.10;2.97;;;19.50;98.60;;;20.00;64.30;95012.56;5034751;28;20475;-64
2023/09/04 01:55:59;;;;;;;2.60;2.40;;;19.50;98.70;;;20.00;64.53;95009.91;5037039;28;20487;-63
2023/09/04 01:58:28;;;;;;;7.90;3.03;;;19.50;98.70;;;20.00;64.33;95009.91;5037504;28;20475;-63
2023/09/04 02:00:55;;;;;;;3.33;2.90;;;19.50;98.70;;;20.00;64.39;95017.91;5037875;28;20474;-63
2023/09/04 02:03:22;;;;;;;3.67;2.60;;;19.50;98.70;;;20.00;64.24;95011.72;5037250;28;20528;-62
2023/09/04 02:05:49;;;;;;;2.90;2.40;;;19.50;98.50;;;20.01;64.54;95013.38;5035895;28;20444;-57
2023/09/04 02:08:17;;;;;;;3.00;2.80;;;19.50;98.80;;;19.99;64.29;95005.56;5036090;28;20484;-65
2023/09/04 02:10:45;;;;;;;2.70;2.50;;;19.50;98.70;;;20.00;63.47;95011.72;5035184;28;20448;-63
2023/09/04 02:13:13;;;;;;;3.13;2.83;;;19.50;98.30;;;19.98;64.07;95014.59;5035302;28;20453;-63
2023/09/04 02:15:40;;;;;;;2.70;2.60;;;19.50;98.20;;;20.01;63.19;95010.72;5035764;28;20876;-57
2023/09/04 02:18:07;;;;;;;2.33;2.23;;;19.50;98.00;;;20.01;63.17;95008.03;5035145;28;20448;-63
2023/09/04 02:20:34;;;;;;;2.60;2.40;;;19.50;97.80;;;20.00;63.09;95012.56;5037386;28;20510;-57
2023/09/04 02:23:02;;;;;;;2.57;2.37;;;19.50;97.70;;;20.00;62.56;95012.56;5033131;28;20496;-62
2023/09/04 02:25:29;;;;;;;2.90;2.70;;;19.50;97.40;;;20.01;62.60;95011.53;5036003;28;20455;-58
2023/09/04 02:27:58;;;;;;;6.00;3.33;;;19.50;97.50;;;20.00;62.39;95007.22;5034191;28;20507;-59
2023/09/04 02:30:25;;;;;;;2.73;2.63;;;19.50;97.30;;;20.00;62.05;95007.22;5036371;28;20525;-58
2023/09/04 02:32:52;;;;;;;2.70;2.60;;;19.50;97.30;;;19.99;62.69;95004.75;5034662;28;20468;-63
2023/09/04 02:35:19;;;;;;;4.13;2.60;;;19.50;97.30;;;19.98;62.63;94995.91;5036466;28;20501;-57
2023/09/04 02:37:46;;;;;;;3.27;3.00;;;19.40;97.30;;;19.95;62.35;95004.28;5037225;28;20965;-63
2023/09/04 02:40:14;;;;;;;3.43;3.13;;;19.50;97.20;;;19.92;62.31;94996.69;5032790;28;20473;-57
2023/09/04 02:42:41;;;;;;;5.53;2.93;;;19.50;97.30;;;19.92;62.26;94999.34;5033404;28;21016;-58
2023/09/04 02:45:10;;;;;;;3.70;2.80;;;19.40;97.20;;;19.91;62.63;94997.72;5037147;28;20483;-58
2023/09/04 02:47:38;;;;;;;3.47;3.20;;;19.40;97.40;;;19.92;62.64;94994.00;5038929;28;20834;-64
2023/09/04 02:50:07;;;;;;;2.60;2.50;;;19.40;97.40;;;19.92;62.46;94996.69;5035950;28;20487;-59
2023/09/04 02:52:34;;;;;;;3.30;2.97;;;19.50;97.30;;;19.92;61.72;94999.34;5039346;28;20481;-62
2023/09/04 02:55:04;;;;;;;3.40;3.20;;;19.40;97.20;;;19.94;61.71;95002.66;5030703;28;20855;-58
2023/09/04 02:57:31;;;;;;;2.73;2.63;;;19.40;97.00;;;19.94;61.84;95005.34;5032910;28;20466;-62
2023/09/04 02:59:59;;;;;;;3.80;3.60;;;19.40;96.90;;;19.95;62.19;95006.16;5035071;28;20480;-64
2023/09/04 03:02:27;;;;;;;9.23;3.43;;;19.40;97.20;;;19.95;61.75;95004.28;5033596;28;20498;-57
2023/09/04 03:04:55;;;;;;;3.30;3.10;;;19.50;97.00;;;19.97;62.28;94996.09;5033469;28;20542;-57
2023/09/04 03:07:25;;;;;;;3.50;3.20;;;19.50;97.00;;;19.97;62.50;94994.25;5029350;28;20460;-57
2023/09/04 03:09:55;;;;;;;2.50;2.27;;;19.40;97.30;;;19.98;61.76;94993.22;5035563;28;20510;-57
2023/09/04 03:12:24;;;;;;;2.60;2.50;;;19.50;97.20;;;20.00;62.13;94996.53;5029249;28;20729;-64
2023/09/04 03:14:56;;;;;;;3.07;2.87;;;19.50;97.00;;;20.01;61.27;94998.19;5034999;28;20491;-65
2023/09/04 03:17:23;;;;;;;5.03;3.10;;;19.50;96.80;;;20.02;61.17;94993.69;5034815;28;20460;-56
2023/09/04 03:19:53;;;;;;;2.50;2.30;;;19.50;96.60;;;20.02;61.06;94994.50;5037054;28;20530;-57
2023/09/04 03:22:20;;;;;;;4.50;2.50;;;19.50;96.60;;;20.04;61.24;94989.78;5034252;28;20503;-64
2023/09/04 03:24:48;;;;;;;2.60;2.40;;;19.50;96.40;;;20.05;60.76;94990.63;5044468;28;20885;-63
2023/09/04 03:27:16;;;;;;;2.73;2.53;;;19.50;96.40;;;20.05;61.34;94988.75;5042650;28;20469;-59
2023/09/04 03:29:43;;;;;;;3.83;2.60;;;19.60;96.40;;;20.06;60.83;94994.91;5037961;28;20476;-61
2023/09/04 03:32:10;;;;;;;3.50;2.77;;;19.60;96.40;;;20.05;61.46;94996.78;5037570;28;21134;-62
2023/09/04 03:34:38;;;;;;;2.93;2.70;;;19.60;96.50;;;20.05;61.45;94998.63;5042880;28;21024;-62
2023/09/04 03:37:07;;;;;;;3.07;2.87;;;19.60;96.40;;;20.05;61.13;94995.97;5040274;28;21042;-63
2023/09/04 03:39:37;;;;;;;3.33;3.03;;;19.60;96.40;;;20.03;61.34;94996.16;5037635;28;20490;-59
2023/09/04 03:42:04;;;;;;;2.87;2.67;;;19.50;96.40;;;20.00;61.87;94996.53;5034551;28;20504;-63
2023/09/04 03:44:31;;;;;;;3.13;2.93;;;19.50;96.70;;;19.97;61.79;95002.28;5039568;28;20494;-58
2023/09/04 03:46:59;;;;;;;3.73;3.37;;;19.50;96.90;;;19.93;61.38;95006.34;5034842;28;20464;-58
2023/09/04 03:49:26;;;;;;;4.60;2.87;;;19.40;96.60;;;19.88;61.60;94995.44;5035121;28;21163;-57
2023/09/04 03:51:53;;;;;;;3.33;3.07;;;19.40;96.70;;;19.85;62.19;95001.16;5037224;28;20497;-58
2023/09/04 03:54:22;;;;;;;3.30;3.10;;;19.40;97.00;;;19.80;62.08;95000.91;5036314;28;20838;-64
2023/09/04 03:56:50;;;;;;;2.97;2.70;;;19.30;97.00;;;19.76;61.90;95004.97;5039955;28;20855;-57
2023/09/04 03:59:17;;;;;;;2.43;2.33;;;19.30;97.00;;;19.72;62.23;95009.88;5037373;28;20460;-63
2023/09/04 04:01:44;;;;;;;2.87;2.70;;;19.30;97.20;;;19.66;62.38;95006.13;5032931;28;20492;-63
2023/09/04 04:04:11;;;;;;;14.53;3.10;;;19.20;97.30;;;19.62;61.89;95004.84;5041416;28;20559;-58
2023/09/04 04:06:39;;;;;;;14.30;3.57;;;19.20;97.20;;;19.59;62.64;95018.56;5035421;28;20452;-59
2023/09/04 04:09:07;;;;;;;4.27;2.73;;;19.10;97.40;;;19.58;62.93;95018.75;5037057;28;20492;-65
2023/09/04 04:11:36;;;;;;;3.37;3.17;;;19.10;97.50;;;19.57;62.70;95007.28;5037891;28;20552;-57
2023/09/04 04:14:04;;;;;;;3.17;2.97;;;19.10;97.70;;;19.59;62.75;95009.75;5043275;28;20483;-56
2023/09/04 04:16:34;;;;;;;10.87;3.80;;;19.10;97.70;;;19.60;63.45;95008.75;5035190;28;20453;-66
2023/09/04 04:19:01;;;;;;;3.27;3.07;;;19.10;97.90;;;19.64;63.21;95013.50;5040942;28;20460;-66
2023/09/04 04:21:29;;;;;;;3.47;3.27;;;19.10;97.90;;;19.68;62.64;95004.06;5040385;28;20549;-65
2023/09/04 04:23:56;;;;;;;3.23;3.03;;;19.20;97.80;;;19.69;62.51;95003.06;5039746;28;20481;-66
2023/09/04 04:26:23;;;;;;;3.30;3.00;;;19.20;97.70;;;19.71;62.72;95005.53;5037343;28;20448;-65
2023/09/04 04:28:52;;;;;;;4.03;3.10;;;19.20;98.20;;;19.76;62.58;95002.28;5039124;28;20478;-66
2023/09/04 04:31:19;;;;;;;4.70;3.10;;;19.20;97.70;;;19.80;62.58;95000.91;5041248;28;20506;-66
2023/09/04 04:33:46;;;;;;;3.13;2.90;;;19.30;97.60;;;19.84;62.48;94994.16;5034839;28;20491;-55
2023/09/04 04:36:13;;;;;;;4.93;2.60;;;19.30;97.50;;;19.92;62.28;94994.00;5040917;28;20486;-59
2023/09/04 04:38:40;;;;;;;3.00;2.80;;;19.40;97.50;;;20.00;61.88;95001.88;5043363;28;21023;-62
2023/09/04 04:41:08;;;;;;;3.10;2.83;;;19.40;97.20;;;20.02;61.81;94997.16;5035560;28;20515;-63
2023/09/04 04:43:36;;;;;;;3.80;2.90;;;19.50;97.20;;;19.99;61.04;94994.88;5039231;28;20495;-56
2023/09/04 04:46:04;;;;;;;6.10;3.40;;;19.50;96.50;;;19.93;61.30;94993.00;5032985;28;20989;-58
2023/09/04 04:48:32;;;;;;;2.63;2.43;;;19.40;96.50;;;19.90;61.29;94993.38;5038854;28;20508;-57
2023/09/04 04:50:59;;;;;;;2.87;2.67;;;19.40;96.40;;;19.87;61.50;94999.13;5037138;28;20461;-56
2023/09/04 04:53:26;;;;;;;2.73;2.63;;;19.40;96.50;;;19.82;61.17;94999.69;5040257;28;20503;-57
2023/09/04 04:55:53;;;;;;;2.87;2.57;;;19.30;96.40;;;19.80;61.29;95003.56;5041783;28;20475;-58
2023/09/04 04:58:21;;;;;;;4.10;2.33;;;19.30;96.50;;;19.76;61.46;94999.63;5037115;28;20566;-56
2023/09/04 05:00:48;;;;;;;2.73;2.53;;;19.30;96.30;;;19.71;61.29;94998.34;5027394;28;21563;-54
2023/09/04 05:03:17;;;;;;;2.23;2.03;;;19.20;96.20;;;19.67;61.22;94997.09;5017092;28;21019;-58
2023/09/04 05:05:47;;;;;;;3.40;3.10;;;19.20;96.20;;;19.65;61.52;95001.78;5035250;28;20534;-62
2023/09/04 05:08:15;;;;;;;7.37;2.87;;;19.20;96.60;;;19.63;61.00;94995.81;5033703;28;20452;-64
2023/09/04 05:10:42;;;;;;;4.40;2.20;;;19.20;96.30;;;19.63;61.26;94997.69;5043425;28;20455;-58
2023/09/04 05:13:09;;;;;;;9.63;2.53;;;19.20;96.50;;;19.62;61.30;94993.34;5033425;28;20453;-58
2023/09/04 05:15:37;;;;;;;2.97;2.77;;;19.10;96.30;;;19.61;61.35;94991.69;5036713;28;20541;-57
2023/09/04 05:18:04;;;;;;;5.60;2.90;;;19.10;96.50;;;19.61;61.47;94987.19;5039817;28;20953;-64
2023/09/04 05:20:37;;;;;;;5.97;2.80;;;19.10;96.20;;;19.62;60.76;94994.16;5037173;28;20471;-56
2023/09/04 05:23:04;;;;;;;3.13;2.60;;;19.10;96.20;;;19.61;60.90;94992.53;5031486;28;20499;-61
2023/09/04 05:25:31;;;;;;;5.93;2.70;;;19.10;96.20;;;19.60;61.06;94990.88;5037090;28;20447;-62
2023/09/04 05:27:59;;;;;;;4.40;2.77;;;19.10;96.20;;;19.61;60.83;94992.53;5038148;28;20617;-66
2023/09/04 05:30:26;;;;;;;4.30;2.67;;;19.10;96.20;;;19.62;61.14;94993.34;5033880;28;20463;-58
2023/09/04 05:32:54;;;;;;;3.00;2.70;;;19.10;96.20;;;19.63;60.74;94998.50;5039627;28;20622;-58
2023/09/04 05:35:22;;;;;;;3.53;2.50;;;19.20;96.20;;;19.63;60.44;94995.81;5033488;28;20484;-62
2023/09/04 05:37:50;;;;;;;3.47;2.37;;;19.20;96.10;;;19.66;60.25;94991.97;5036936;28;21036;-61
2023/09/04 05:40:18;;;;;;;4.70;2.60;;;19.20;95.90;;;19.66;60.59;94989.28;5032678;28;20578;-57
2023/09/04 05:42:45;;;;;;;6.30;2.87;;;19.20;95.90;;;19.66;60.29;94994.63;5031659;28;20496;-63
2023/09/04 05:45:12;;;;;;;3.90;3.17;;;19.20;95.80;;;19.65;60.27;94990.31;5033318;28;20865;-64
2023/09/04 05:47:40;;;;;;;4.60;3.23;;;19.20;96.00;;;19.65;59.97;94999.13;5032542;28;20793;-58
2023/09/04 05:50:09;;;;;;;3.13;2.83;;;19.20;95.90;;;19.67;60.07;94989.09;5037095;28;20472;-58
2023/09/04 05:52:37;;;;;;;7.60;2.80;;;19.20;95.70;;;19.67;60.63;94991.78;5036273;28;20459;-57
2023/09/04 05:55:07;;;;;;;3.13;2.80;;;19.20;95.80;;;19.68;60.07;94992.59;5040118;28;20503;-61
2023/09/04 05:57:35;;;;;;;3.30;2.50;;;19.20;95.70;;;19.68;59.97;94985.38;5040267;28;21077;-63
2023/09/04 06:00:02;;;;;;;4.27;3.20;;;19.20;95.60;;;19.70;60.57;94991.38;5039232;28;20495;-58
2023/09/04 06:02:30;;;;;;;2.97;2.63;;;19.20;95.80;;;19.68;60.32;94990.72;5041505;28;20859;-58
2023/09/04 06:04:57;;;;;;;3.27;3.07;;;19.20;95.70;;;19.69;60.17;94992.38;5034661;28;20483;-59
2023/09/04 06:07:25;;;;;;;2.77;2.67;;;19.20;95.80;;;19.71;60.07;94985.00;5035608;28;20471;-59
2023/09/04 06:09:52;;;;;;;3.37;3.17;;;19.20;95.90;;;19.71;60.40;94979.66;5038213;28;20480;-63
2023/09/04 06:12:21;;;;;;;3.60;2.60;;;19.20;95.90;;;19.67;60.09;94978.44;5033490;28;20551;-58
2023/09/04 06:14:49;;;;;;;3.53;3.23;;;19.20;95.60;;;19.64;60.42;94980.63;5041591;28;20912;-63
2023/09/04 06:17:16;;;;;;;4.10;3.10;;;19.20;95.80;;;19.63;60.54;94982.50;5036244;28;20457;-64
2023/09/04 06:19:44;;;;;;;3.10;2.80;;;19.20;96.00;;;19.61;60.09;94981.03;5029173;28;20471;-63
2023/09/04 06:22:12;;;;;;;2.97;2.50;;;19.20;95.90;;;19.63;60.63;94979.81;5034534;28;20502;-58
2023/09/04 06:24:39;;;;;;;5.97;3.00;;;19.20;95.80;;;19.61;59.87;94978.34;5040520;28;20484;-65
2023/09/04 06:27:07;;;;;;;6.90;2.60;;;19.20;95.60;;;19.61;59.92;94970.34;5033776;28;20924;-59
2023/09/04 06:29:36;;;;;;;6.40;2.40;;;19.20;95.70;;;19.65;59.73;94983.09;5036073;28;20480;-58
2023/09/04 06:32:04;;;;;;;3.10;2.80;;;19.20;95.50;;;19.66;59.33;94979.44;5033504;28;20515;-63
2023/09/04 06:34:31;;;;;;;3.30;2.83;;;19.20;95.20;;;19.67;59.74;94990.91;5035837;28;20479;-57
2023/09/04 06:36:59;;;;;;;6.97;3.10;;;19.20;95.30;;;19.70;59.55;94991.38;5036140;28;20455;-63
2023/09/04 06:39:26;;;;;;;2.97;2.73;;;19.20;95.20;;;19.73;59.97;94994.66;5030137;28;20845;-60
2023/09/04 06:41:54;;;;;;;4.57;3.60;;;19.20;95.30;;;19.73;59.99;94997.34;5039313;28;20461;-65
2023/09/04 06:44:21;;;;;;;3.93;3.30;;;19.30;95.30;;;19.75;59.97;94997.97;5040467;28;21061;-57
2023/09/04 06:46:50;;;;;;;4.10;3.77;;;19.30;95.40;;;19.73;59.57;94998.16;5040143;28;20494;-64
2023/09/04 06:49:17;;;;;;;7.03;2.93;;;19.30;95.20;;;19.73;59.30;95006.16;5036716;28;20492;-59
2023/09/04 06:51:45;;;;;;;4.40;4.07;;;19.30;95.20;;;19.76;59.88;95011.13;5041364;28;20455;-64
2023/09/04 06:54:12;;;;;;;3.10;2.77;;;19.30;95.20;;;19.79;59.07;95004.59;5039064;28;20480;-62
2023/09/04 06:56:39;;;;;;;2.90;2.80;;;19.30;95.10;;;19.84;59.39;95002.16;5038490;28;20486;-56
2023/09/04 06:59:07;;;;;;;5.93;3.30;;;19.30;95.00;;;19.88;59.69;95003.44;5034840;28;20546;-64
2023/09/04 07:01:34;;;;;;;10.53;3.20;;;19.40;95.00;;;19.91;59.24;95003.06;5043188;28;20455;-62
2023/09/04 07:04:04;;;;;;;3.67;3.07;;;19.40;95.10;;;19.94;59.05;95007.16;5041885;28;20526;-57
2023/09/04 07:06:31;;;;;;;5.33;3.47;;;19.40;94.90;;;19.95;59.44;95006.16;5036050;28;20481;-63
2023/09/04 07:08:58;;;;;;;4.73;4.30;;;19.40;94.80;;;19.95;59.14;95000.81;5039379;28;20561;-62
2023/09/04 07:11:26;;;;;;;5.23;2.87;;;19.50;94.80;;;19.95;58.91;95006.16;5037743;28;20473;-57
2023/09/04 07:13:53;;;;;;;6.40;3.27;;;19.50;94.60;;;19.95;58.69;95004.28;5041451;28;21113;-57
2023/09/04 07:16:21;;;;;;;4.73;3.70;;;19.50;94.60;;;19.97;59.31;95007.63;5043752;28;20850;-59
2023/09/04 07:18:48;;;;;;;11.90;3.23;;;19.50;94.90;;;20.00;58.88;95009.06;5042484;28;20512;-57
2023/09/04 07:21:17;;;;;;;3.10;2.87;;;19.50;94.70;;;20.01;58.71;95008.84;5041000;28;20480;-58
2023/09/04 07:23:46;;;;;;;3.13;2.90;;;19.60;94.70;;;20.04;58.59;95011.13;5038140;28;20603;-58
2023/09/04 07:26:13;;;;;;;4.30;3.70;;;19.60;94.60;;;20.09;59.00;95017.75;5037785;28;20521;-63
2023/09/04 07:28:41;;;;;;;5.53;3.40;;;19.60;94.60;;;20.13;58.74;95013.69;5040446;28;20563;-57
2023/09/04 07:31:17;;;;;;;3.30;3.10;;;19.60;94.50;;;20.18;58.63;95019.25;5041478;28;20840;-59
2023/09/04 07:33:45;;;;;;;4.53;3.40;;;19.70;94.40;;;20.21;58.06;95017.00;5038183;28;20562;-63
2023/09/04 07:36:12;;;;;;;7.43;3.67;;;19.70;94.20;;;20.21;58.27;95013.50;5039868;28;20459;-58
2023/09/04 07:38:40;;;;;;;4.23;3.80;;;19.70;94.10;;;20.21;58.48;95013.50;5038363;28;20479;-58
2023/09/04 07:41:08;;;;;;;5.93;3.63;;;19.70;94.00;;;20.22;58.67;95015.16;5040494;28;20456;-58
2023/09/04 07:43:35;;;;;;;4.43;4.03;;;19.70;94.20;;;20.28;58.20;95017.06;5040013;28;20504;-58
2023/09/04 07:46:04;;;;;;;4.90;4.50;;;19.80;93.80;;;20.34;58.26;95016.28;5038588;28;20542;-56
2023/09/04 07:48:31;;;;;;;6.07;4.00;;;19.80;93.80;;;20.41;57.72;95013.63;5036019;28;20472;-55
2023/09/04 07:50:58;;;;;;;7.70;4.70;;;19.90;93.80;;;20.45;57.42;95017.56;5042180;28;20444;-58
2023/09/04 07:53:26;;;;;;;3.90;3.67;;;19.90;93.20;;;20.48;56.83;95014.50;5040872;28;20479;-62
2023/09/04 07:55:55;;;;;;;3.77;3.53;;;20.00;93.10;;;20.54;56.90;95023.56;5040465;28;20521;-64
2023/09/04 07:58:22;;;;;;;6.60;4.03;;;20.00;92.70;;;20.57;56.22;95015.13;5038744;28;20931;-58
2023/09/04 08:00:50;;;;;;;3.40;3.20;;;20.10;92.40;;;20.57;56.06;95007.13;5034868;28;20460;-62
2023/09/04 08:03:18;;;;;;;5.67;3.80;;;20.10;91.90;;;20.58;55.91;95017.63;5034788;28;21099;-64
2023/09/04 08:05:46;;;;;;;6.23;4.30;;;20.10;91.80;;;20.61;55.86;95016.41;5044120;28;20994;-57
2023/09/04 08:08:13;;;;;;;4.57;4.17;;;20.10;91.80;;;20.64;55.90;95013.34;5038575;28;20463;-63
2023/09/04 08:10:43;;;;;;;4.17;3.80;;;20.10;91.80;;;20.69;55.61;95010.09;5038455;28;20532;-64
2023/09/04 08:13:13;;;;;;;7.90;5.23;;;20.20;91.70;;;20.73;55.23;95016.69;5045462;28;20843;-59
2023/09/04 08:15:41;;;;;;;6.23;3.60;;;20.20;91.30;;;20.76;55.51;95018.97;5039578;28;20958;-63
2023/09/04 08:18:09;;;;;;;6.07;4.27;;;20.30;91.20;;;20.80;55.53;95022.06;5038539;28;20463;-58
2023/09/04 08:20:36;;;;;;;4.60;4.17;;;20.30;91.10;;;20.86;55.13;95015.91;5039673;28;20456;-63
2023/09/04 08:23:04;;;;;;;5.13;4.63;;;20.40;91.20;;;20.92;55.13;95018.59;5036537;28;20579;-58
2023/09/04 08:25:32;;;;;;;3.90;3.60;;;20.40;90.90;;;20.97;54.59;95018.00;5040641;28;20842;-59
2023/09/04 08:27:59;;;;;;;4.97;4.63;;;20.50;90.40;;;21.04;54.53;95012.69;5041849;28;20448;-60
2023/09/04 08:30:28;;;;;;;7.10;5.40;;;20.50;90.40;;;21.13;54.68;95019.47;5037770;28;20468;-62
2023/09/04 08:32:56;;;;;;;6.83;4.43;;;20.60;90.40;;;21.17;54.08;95017.25;5041220;28;20470;-62
2023/09/04 08:35:24;;;;;;;4.10;3.70;;;20.70;89.80;;;21.14;54.32;95021.97;5041394;28;20448;-59
2023/09/04 08:37:51;;;;;;;5.13;4.40;;;20.70;89.70;;;21.13;54.25;95017.66;5040110;28;20458;-59
2023/09/04 08:40:19;;;;;;;9.10;6.47;;;20.70;89.90;;;21.12;54.55;95013.31;5038074;28;20579;-63
2023/09/04 08:42:46;;;;;;;5.27;4.70;;;20.60;90.00;;;21.10;54.45;95010.03;5036714;28;20447;-63
2023/09/04 08:45:15;;;;;;;7.20;4.57;;;20.60;89.80;;;21.12;54.47;95007.97;5035197;28;20503;-62
2023/09/04 08:47:44;;;;;;;5.20;4.70;;;20.60;89.90;;;21.17;54.34;95001.19;5043080;28;20471;-58
2023/09/04 08:50:12;;;;;;;4.27;3.87;;;20.60;90.00;;;21.23;53.93;95005.75;5035602;28;20465;-61
2023/09/04 08:52:42;;;;;;;4.27;3.97;;;20.70;89.50;;;21.26;54.18;95006.16;5036785;28;20925;-59
2023/09/04 08:55:09;;;;;;;5.70;5.30;;;20.80;89.60;;;21.28;54.11;95008.63;5041526;28;20467;-63
2023/09/04 08:57:36;;;;;;;4.27;3.97;;;20.80;89.40;;;21.26;53.90;95008.81;5037552;28;20977;-58
2023/09/04 09:00:05;;;;;;;4.50;4.13;;;20.80;89.10;;;21.20;53.79;95003.47;5036484;28;20480;-58
2023/09/04 09:02:33;;;;;;;4.93;4.43;;;20.70;88.50;;;21.11;53.89;95014.34;5040007;28;20459;-59
2023/09/04 09:05:02;;;;;;;4.20;3.90;;;20.70;88.50;;;21.05;54.10;95019.69;5037414;28;20579;-65
2023/09/04 09:07:29;;;;;;;4.93;4.47;;;20.60;88.90;;;20.98;53.99;95019.66;5038329;28;20547;-59
2023/09/04 09:10:00;;;;;;;4.67;4.37;;;20.50;89.10;;;20.92;54.53;95017.78;5040387;28;20475;-58
2023/09/04 09:12:27;;;;;;;6.43;5.03;;;20.40;89.40;;;20.87;54.81;95018.41;5036688;28;20455;-64
2023/09/04 09:14:55;;;;;;;7.80;4.67;;;20.40;89.90;;;20.80;54.93;95014.03;5037431;28;20487;-58
2023/09/04 09:17:22;;;;;;;6.30;4.70;;;20.30;90.00;;;20.73;54.79;95014.84;5041009;28;21483;-64
2023/09/04 09:19:50;;;;;;;7.03;4.80;;;20.30;90.00;;;20.70;54.62;95017.09;5038925;28;20968;-56
2023/09/04 09:22:20;;;;;;;6.00;4.83;;;20.20;90.10;;;20.67;54.95;95017.50;5036839;28;20492;-62
2023/09/04 09:24:52;;;;;;;5.00;4.63;;;20.20;90.30;;;20.64;55.17;95016.00;5033712;28;20490;-62
2023/09/04 09:27:20;;;;;;;5.40;5.00;;;20.10;90.30;;;20.64;55.19;95017.88;5033076;28;20464;-57
2023/09/04 09:29:47;;;;;;;5.53;5.00;;;20.10;90.30;;;20.63;55.16;95024.22;5037101;28;20588;-57
2023/09/04 09:32:16;;;;;;;5.97;5.50;;;20.20;90.80;;;20.56;55.34;95024.19;5033601;28;20464;-58
2023/09/04 09:34:49;;;;;;;6.30;5.70;;;20.10;90.60;;;20.51;55.49;95024.78;5033096;28;20471;-56
2023/09/04 09:37:18;;;;;;;4.83;4.47;;;20.00;91.10;;;20.47;55.62;95025.38;5032407;28;20466;-58
2023/09/04 09:39:45;;;;;;;5.13;4.77;;;20.00;90.90;;;20.45;55.84;95022.91;5033599;28;20538;-61
2023/09/04 09:42:13;;;;;;;8.67;5.53;;;20.00;90.80;;;20.47;56.30;95017.38;5035952;28;20506;-63
2023/09/04 09:44:40;;;;;;;6.17;4.93;;;20.00;91.10;;;20.50;55.78;95022.31;5034081;28;20499;-57
2023/09/04 09:47:08;;;;;;;7.27;5.67;;;20.00;91.10;;;20.54;55.93;95012.88;5032454;28;20448;-64
2023/09/04 09:49:36;;;;;;;8.43;5.83;;;20.00;91.10;;;20.56;55.44;95017.00;5039081;28;20916;-58
2023/09/04 09:52:07;;;;;;;10.30;5.97;;;20.10;91.10;;;20.54;55.64;95012.88;5036929;28;20544;-58
2023/09/04 09:54:37;;;;;;;7.07;4.60;;;20.10;91.00;;;20.53;55.56;95012.03;5033414;28;21024;-64
2023/09/04 09:57:07;;;;;;;8.20;5.23;;;20.10;90.90;;;20.51;55.54;95010.59;5032110;28;20540;-57
2023/09/04 09:59:35;;;;;;;6.20;5.70;;;20.00;90.90;;;20.52;55.36;95022.94;5037142;28;20476;-57
2023/09/04 10:02:03;;;;;;;6.80;4.50;;;20.00;90.90;;;20.54;55.95;95015.53;5033858;28;20463;-58
2023/09/04 10:04:32;;;;;;;5.37;4.97;;;20.00;91.10;;;20.54;55.42;95016.38;5039929;28;20560;-57
2023/09/04 10:07:00;;;;;;;5.70;5.30;;;20.10;91.10;;;20.55;55.72;95011.84;5032278;28;20452;-57
2023/09/04 10:09:29;;;;;;;6.03;5.50;;;20.00;91.10;;;20.53;56.57;95014.72;5034710;28;20489;-63
2023/09/04 10:12:04;;;;;;;5.40;4.93;;;20.00;91.60;;;20.53;56.14;95011.22;5036526;28;20537;-56
2023/09/04 10:14:34;;;;;;;7.63;4.50;;;20.00;91.70;;;20.53;56.30;95016.56;5035304;28;20533;-63
2023/09/04 10:17:03;;;;;;;4.70;4.30;;;20.00;91.60;;;20.50;55.97;95009.78;5032308;28;20451;-61
2023/09/04 10:19:33;;;;;;;5.30;4.50;;;20.00;91.60;;;20.51;56.76;95015.94;5038119;28;20510;-56
2023/09/04 10:22:04;;;;;;;4.17;3.90;;;20.00;92.10;;;20.51;56.74;95010.59;5036622;28;20452;-64
2023/09/04 10:24:38;;;;;;;4.60;4.20;;;20.00;92.00;;;20.50;56.36;95008.97;5032782;28;20962;-56